Mason City Municipal Airport
KMCW : now visible

Airfield :











YOU CAN JOIN US ON...

 
LOGIN :

Register | Disclaimer

   EN    FR    IT 

 









Legend :    VFR   Marginal VFR   IFR   Intensive IFR   Very Intensive IFR
Visi :
Ceiling :
>= 8 km
>= 3000ft
5 to 8 km
1000 to 3000 ft
1500m to 5 km
500 to 1000 ft
800 to 1500m
200 to 500 ft
< 800m
< 200 ft
Symbols :   Thunderstorms  Fog  Heavy snow  Heavy precipitations  Wind > 20 kt






- Airport Elevation : 1213 ft


KMCW - Mason City Municipal

CURRENT METAR :
  • 181053Z AUTO 21004KT 1 3/4SM -SN BR OVC025 M03/M03 A2974 RMK AO2 SNB08 SLP082 P0001 T10281033

EXPIRED METARs :
  • 181043Z AUTO 20004KT 2SM -SN BR OVC033 M03/M03 A2974 RMK AO2 SNB08 P0001 T10281033
  • 181028Z AUTO 19004KT 1 1/4SM -SN BR FEW005 BKN018 OVC033 M03/M03 A2974 RMK AO2 SNB08 P0001 T10281033
  • 181016Z AUTO 19004KT 2 1/2SM -SN BR FEW005 OVC028 M03/M03 A2975 RMK AO2 SNB08 P0000 T10281033
  • 180953Z AUTO 18005KT 3SM BR SCT004 OVC028 M03/M03 A2975 RMK AO2 SNE01 SLP084 P0000 I1001 T10281033
  • 180949Z AUTO 17004KT 3SM BR SCT004 OVC026 M03/M03 A2975 RMK AO2 SNE01 P0000 I1001
  • 180941Z AUTO 16004KT 2 1/2SM BR SCT005 OVC026 M03/M03 A2975 RMK AO2 SNE01 P0000 I1001 T10281033
  • 180921Z AUTO 16005KT 3SM BR FEW005 OVC030 M03/M03 A2976 RMK AO2 SNE01 P0000 I1000 T10281033
  • 180900Z AUTO 15008KT 3SM -SN BR OVC030 M03/M03 A2977 RMK AO2 P0000 T10281033
  • 180853Z AUTO 16008KT 2 1/2SM -SN BR OVC028 M03/M03 A2977 RMK AO2 SNE00B43 SLP094 P0000 60000 I1000 I3003 T10281033 56024
  • 180829Z AUTO 15010KT 5SM BR OVC029 M03/M03 A2978 RMK AO2 SNE00 P0000 I1000 T10281033
  • 180816Z AUTO 15008KT 4SM BR FEW008 OVC031 M03/M03 A2978 RMK AO2 SNE00 P0000 I1000 T10281033

TAF KMCW
Valid from the 18 at 06:00 until the 19 at 06:00 UTC


180534Z 1806/1906 14014G24KT 2SM -FZDZ BR OVC005
FM181100 28018G25KT 3SM -SN OVC011
FM181300 30027G44KT 1/2SM -SN BLSN OVC009
FM182300 30018G27KT 5SM BLSN SKC



MET'MAP, your aeronautical weather chart ! - Copyright ORBIFLY December 2007 - Disclaimer

ORBIFLY MET'MAP TEAM :

Programming & Development : Alexandra Zaïnal
Concept & original design : Baudouin d'Aumeries
Assistance for programming : Marc-Olivier Méhu
Technical & hardware support : Manuel Goepfert

Contact : metmap@orbifly.com




SOURCES & CREDITS :

   NOAA       Earth
Advisory